ISR584 LLBG-LCLK
Flight info
| Callsign | ISR584 |
|---|---|
| Flight time | 0h 35m |
| Altitude | 28000 |
| Route | DAFNA DCT VELOX N131 EMEDA |
| Aircraft | A320/M-SDE3FGHIRWY/LB1 |
Departure
| Time | 2026-05-07 13:38 |
|---|---|
| Airport | Ben Gurion International Airport (LLBG) |
Arrival
| Time | 2026-05-07 14:14 |
|---|---|
| Airport | Larnaca International Airport (LCLK) |
| Time | Latitude | Longitude | Altitude | Speed | Heading |
|---|---|---|---|---|---|
| 2026-05-07 13:17 | 32.00133 | 34.87809 | 120 ft | 0 kts | 118° |
| 2026-05-07 13:18 | 32.00133 | 34.87808 | 120 ft | 0 kts | 118° |
| 2026-05-07 13:28 | 32.00134 | 34.87807 | 120 ft | 1 kts | 118° |
| 2026-05-07 13:28 | 32.00145 | 34.87784 | 116 ft | 4 kts | 118° |
| 2026-05-07 13:29 | 32.00157 | 34.87756 | 117 ft | 3 kts | 118° |
| 2026-05-07 13:29 | 32.00166 | 34.87733 | 117 ft | 4 kts | 88° |
| 2026-05-07 13:29 | 32.00156 | 34.87708 | 116 ft | 4 kts | 34° |
| 2026-05-07 13:29 | 32.00135 | 34.87692 | 119 ft | 4 kts | 31° |
| 2026-05-07 13:30 | 32.00117 | 34.87679 | 118 ft | 0 kts | 32° |
| 2026-05-07 13:32 | 32.00127 | 34.87687 | 119 ft | 3 kts | 33° |
| 2026-05-07 13:33 | 32.00167 | 34.87717 | 115 ft | 11 kts | 33° |
| 2026-05-07 13:33 | 32.00239 | 34.87770 | 119 ft | 13 kts | 30° |
| 2026-05-07 13:33 | 32.00324 | 34.87829 | 120 ft | 15 kts | 32° |
| 2026-05-07 13:33 | 32.00418 | 34.87897 | 118 ft | 17 kts | 31° |
| 2026-05-07 13:34 | 32.00524 | 34.87955 | 119 ft | 16 kts | 349° |
| 2026-05-07 13:34 | 32.00723 | 34.88015 | 116 ft | 17 kts | 31° |
| 2026-05-07 13:34 | 32.00827 | 34.88091 | 117 ft | 18 kts | 31° |
| 2026-05-07 13:35 | 32.00940 | 34.88174 | 117 ft | 20 kts | 32° |
| 2026-05-07 13:35 | 32.01060 | 34.88260 | 117 ft | 21 kts | 31° |
| 2026-05-07 13:35 | 32.01187 | 34.88350 | 121 ft | 21 kts | 33° |
| 2026-05-07 13:35 | 32.01310 | 34.88458 | 120 ft | 23 kts | 42° |
| 2026-05-07 13:36 | 32.01412 | 34.88605 | 119 ft | 24 kts | 59° |
| 2026-05-07 13:36 | 32.01484 | 34.88786 | 118 ft | 25 kts | 69° |
| 2026-05-07 13:36 | 32.01518 | 34.88986 | 116 ft | 25 kts | 80° |
| 2026-05-07 13:36 | 32.01572 | 34.89162 | 118 ft | 20 kts | 21° |
| 2026-05-07 13:37 | 32.01714 | 34.89146 | 117 ft | 21 kts | 357° |
| 2026-05-07 13:37 | 32.01744 | 34.89091 | 115 ft | 6 kts | 255° |
| 2026-05-07 13:37 | 32.01731 | 34.89014 | 118 ft | 26 kts | 261° |
| 2026-05-07 13:37 | 32.01662 | 34.88522 | 122 ft | 93 kts | 259° |
| 2026-05-07 13:38 | 32.01511 | 34.87563 | 117 ft | 143 kts | 260° |
| 2026-05-07 13:38 | 32.01298 | 34.86269 | 273 ft | 167 kts | 265° |
| 2026-05-07 13:38 | 32.01104 | 34.84960 | 928 ft | 158 kts | 268° |
| 2026-05-07 13:38 | 32.00972 | 34.83678 | 1484 ft | 159 kts | 270° |
| 2026-05-07 13:39 | 32.00841 | 34.82335 | 1871 ft | 174 kts | 265° |
| 2026-05-07 13:39 | 32.00520 | 34.80853 | 2122 ft | 199 kts | 260° |
| 2026-05-07 13:39 | 32.00111 | 34.79188 | 2377 ft | 224 kts | 258° |
| 2026-05-07 13:39 | 31.99660 | 34.77328 | 2756 ft | 248 kts | 258° |
| 2026-05-07 13:40 | 31.99334 | 34.75264 | 3318 ft | 261 kts | 273° |
| 2026-05-07 13:40 | 31.99693 | 34.73168 | 4147 ft | 264 kts | 290° |
| 2026-05-07 13:40 | 32.00298 | 34.71137 | 5024 ft | 268 kts | 290° |
| 2026-05-07 13:40 | 32.00945 | 34.69059 | 5869 ft | 272 kts | 290° |
| 2026-05-07 13:41 | 32.01607 | 34.66965 | 6698 ft | 274 kts | 291° |
| 2026-05-07 13:41 | 32.02605 | 34.65051 | 7472 ft | 279 kts | 313° |
| 2026-05-07 13:41 | 32.04145 | 34.63637 | 8277 ft | 282 kts | 324° |
| 2026-05-07 13:41 | 32.05772 | 34.62322 | 9080 ft | 285 kts | 324° |
| 2026-05-07 13:42 | 32.07415 | 34.61003 | 9875 ft | 287 kts | 324° |
| 2026-05-07 13:42 | 32.09088 | 34.59664 | 10394 ft | 299 kts | 324° |
| 2026-05-07 13:42 | 32.10875 | 34.58228 | 10554 ft | 322 kts | 324° |
| 2026-05-07 13:42 | 32.12789 | 34.56688 | 10746 ft | 342 kts | 324° |
| 2026-05-07 13:43 | 32.14774 | 34.55087 | 11268 ft | 349 kts | 324° |
| 2026-05-07 13:43 | 32.16105 | 34.54015 | 11694 ft | 351 kts | 324° |
| 2026-05-07 13:43 | 32.18132 | 34.52382 | 12352 ft | 354 kts | 323° |
| 2026-05-07 13:43 | 32.20838 | 34.50198 | 13210 ft | 358 kts | 323° |
| 2026-05-07 13:44 | 32.22903 | 34.48529 | 13860 ft | 361 kts | 323° |
| 2026-05-07 13:44 | 32.24983 | 34.46847 | 14442 ft | 363 kts | 323° |
| 2026-05-07 13:44 | 32.27070 | 34.45156 | 15035 ft | 365 kts | 323° |
| 2026-05-07 13:44 | 32.28462 | 34.44027 | 15426 ft | 366 kts | 323° |
| 2026-05-07 13:45 | 32.30566 | 34.42320 | 16009 ft | 368 kts | 324° |
| 2026-05-07 13:45 | 32.32685 | 34.40603 | 16595 ft | 370 kts | 324° |
| 2026-05-07 13:45 | 32.34818 | 34.38878 | 17185 ft | 372 kts | 324° |
| 2026-05-07 13:45 | 32.36961 | 34.37141 | 17781 ft | 375 kts | 324° |
| 2026-05-07 13:46 | 32.39114 | 34.35386 | 18378 ft | 377 kts | 324° |
| 2026-05-07 13:46 | 32.41281 | 34.33619 | 18902 ft | 380 kts | 324° |
| 2026-05-07 13:46 | 32.43471 | 34.31842 | 19446 ft | 382 kts | 324° |
| 2026-05-07 13:46 | 32.45672 | 34.30054 | 20004 ft | 385 kts | 324° |
| 2026-05-07 13:47 | 32.47882 | 34.28258 | 20566 ft | 387 kts | 324° |
| 2026-05-07 13:47 | 32.50106 | 34.26450 | 21111 ft | 389 kts | 324° |
| 2026-05-07 13:47 | 32.52376 | 34.24692 | 21617 ft | 391 kts | 329° |
| 2026-05-07 13:47 | 32.54876 | 34.23378 | 22110 ft | 396 kts | 340° |
| 2026-05-07 13:48 | 32.57531 | 34.22638 | 22569 ft | 401 kts | 350° |
| 2026-05-07 13:48 | 32.60320 | 34.22311 | 23032 ft | 404 kts | 352° |
| 2026-05-07 13:48 | 32.63127 | 34.21999 | 23489 ft | 406 kts | 351° |
| 2026-05-07 13:48 | 32.65945 | 34.21683 | 23886 ft | 408 kts | 351° |
| 2026-05-07 13:49 | 32.68780 | 34.21363 | 24254 ft | 410 kts | 351° |
| 2026-05-07 13:49 | 32.71629 | 34.21036 | 24604 ft | 412 kts | 351° |
| 2026-05-07 13:49 | 32.74493 | 34.20707 | 24949 ft | 415 kts | 351° |
| 2026-05-07 13:49 | 32.77373 | 34.20380 | 25293 ft | 417 kts | 351° |
| 2026-05-07 13:50 | 32.80267 | 34.20049 | 25630 ft | 419 kts | 351° |
| 2026-05-07 13:50 | 32.83172 | 34.19717 | 25959 ft | 421 kts | 351° |
| 2026-05-07 13:50 | 32.86099 | 34.19381 | 26296 ft | 423 kts | 351° |
| 2026-05-07 13:50 | 32.89034 | 34.19046 | 26632 ft | 425 kts | 351° |
| 2026-05-07 13:51 | 32.91990 | 34.18708 | 26967 ft | 427 kts | 350° |
| 2026-05-07 13:51 | 32.94960 | 34.18365 | 27301 ft | 430 kts | 350° |
| 2026-05-07 13:51 | 32.97901 | 34.18027 | 27616 ft | 432 kts | 350° |
| 2026-05-07 13:51 | 33.00894 | 34.17684 | 27976 ft | 433 kts | 350° |
| 2026-05-07 13:52 | 33.03887 | 34.17341 | 28079 ft | 432 kts | 350° |
| 2026-05-07 13:52 | 33.09867 | 34.16661 | 28096 ft | 431 kts | 350° |
| 2026-05-07 13:53 | 33.15836 | 34.15972 | 28098 ft | 430 kts | 350° |
| 2026-05-07 13:53 | 33.21798 | 34.15283 | 28099 ft | 430 kts | 350° |
| 2026-05-07 13:54 | 33.27750 | 34.14600 | 28098 ft | 430 kts | 350° |
| 2026-05-07 13:54 | 33.33700 | 34.13910 | 28100 ft | 429 kts | 350° |
| 2026-05-07 13:55 | 33.39646 | 34.13219 | 28110 ft | 429 kts | 350° |
| 2026-05-07 13:55 | 33.45554 | 34.12534 | 28112 ft | 429 kts | 350° |
| 2026-05-07 13:56 | 33.51501 | 34.11847 | 28111 ft | 429 kts | 350° |
| 2026-05-07 13:56 | 33.57441 | 34.11159 | 28115 ft | 429 kts | 350° |
| 2026-05-07 13:57 | 33.63383 | 34.10472 | 28112 ft | 429 kts | 350° |
| 2026-05-07 13:57 | 33.69322 | 34.09780 | 28112 ft | 429 kts | 350° |
| 2026-05-07 13:58 | 33.75257 | 34.09089 | 28114 ft | 429 kts | 350° |
| 2026-05-07 13:58 | 33.78229 | 34.08741 | 27710 ft | 428 kts | 350° |
| 2026-05-07 13:58 | 33.81176 | 34.08294 | 26954 ft | 424 kts | 345° |
| 2026-05-07 13:58 | 33.83948 | 34.07386 | 26382 ft | 415 kts | 338° |
| 2026-05-07 13:59 | 33.86659 | 34.06255 | 25807 ft | 411 kts | 338° |
| 2026-05-07 13:59 | 33.89348 | 34.05132 | 25234 ft | 407 kts | 338° |
| 2026-05-07 13:59 | 33.92007 | 34.04020 | 24669 ft | 403 kts | 338° |
| 2026-05-07 13:59 | 33.94645 | 34.02914 | 24106 ft | 400 kts | 338° |
| 2026-05-07 14:00 | 33.97262 | 34.01815 | 23541 ft | 397 kts | 338° |
| 2026-05-07 14:00 | 33.99855 | 34.00727 | 22960 ft | 392 kts | 338° |
| 2026-05-07 14:00 | 34.02415 | 33.99654 | 22448 ft | 387 kts | 338° |
| 2026-05-07 14:00 | 34.04949 | 33.98593 | 21936 ft | 384 kts | 338° |
| 2026-05-07 14:01 | 34.07457 | 33.97543 | 21451 ft | 380 kts | 338° |
| 2026-05-07 14:01 | 34.09913 | 33.96510 | 20984 ft | 378 kts | 338° |
| 2026-05-07 14:01 | 34.12385 | 33.95470 | 20518 ft | 375 kts | 338° |
| 2026-05-07 14:01 | 34.14844 | 33.94437 | 20045 ft | 373 kts | 338° |
| 2026-05-07 14:02 | 34.17283 | 33.93411 | 19574 ft | 370 kts | 338° |
| 2026-05-07 14:02 | 34.19708 | 33.92389 | 19123 ft | 368 kts | 338° |
| 2026-05-07 14:02 | 34.22117 | 33.91372 | 18661 ft | 365 kts | 338° |
| 2026-05-07 14:02 | 34.24506 | 33.90361 | 18172 ft | 364 kts | 339° |
| 2026-05-07 14:03 | 34.26884 | 33.89357 | 17669 ft | 360 kts | 339° |
| 2026-05-07 14:03 | 34.29240 | 33.88361 | 17188 ft | 356 kts | 339° |
| 2026-05-07 14:03 | 34.31568 | 33.87374 | 16714 ft | 353 kts | 339° |
| 2026-05-07 14:03 | 34.33874 | 33.86397 | 16218 ft | 350 kts | 339° |
| 2026-05-07 14:04 | 34.36136 | 33.85438 | 15741 ft | 348 kts | 339° |
| 2026-05-07 14:04 | 34.38417 | 33.84469 | 15253 ft | 346 kts | 339° |
| 2026-05-07 14:04 | 34.40684 | 33.83508 | 14759 ft | 345 kts | 340° |
| 2026-05-07 14:04 | 34.42943 | 33.82553 | 14275 ft | 344 kts | 340° |
| 2026-05-07 14:05 | 34.45198 | 33.81601 | 13765 ft | 343 kts | 340° |
| 2026-05-07 14:05 | 34.47448 | 33.80650 | 13238 ft | 341 kts | 340° |
| 2026-05-07 14:05 | 34.49679 | 33.79695 | 12727 ft | 339 kts | 340° |
| 2026-05-07 14:05 | 34.51890 | 33.78716 | 12240 ft | 337 kts | 340° |
| 2026-05-07 14:06 | 34.54123 | 33.77861 | 11753 ft | 339 kts | 351° |
| 2026-05-07 14:06 | 34.56455 | 33.77840 | 11268 ft | 341 kts | 4° |
| 2026-05-07 14:06 | 34.58816 | 33.78107 | 10780 ft | 340 kts | 5° |
| 2026-05-07 14:06 | 34.61161 | 33.78386 | 10307 ft | 337 kts | 5° |
| 2026-05-07 14:07 | 34.63490 | 33.78659 | 9819 ft | 335 kts | 5° |
| 2026-05-07 14:07 | 34.65804 | 33.78928 | 9296 ft | 333 kts | 5° |
| 2026-05-07 14:07 | 34.68100 | 33.79197 | 8778 ft | 330 kts | 5° |
| 2026-05-07 14:07 | 34.70377 | 33.79467 | 8272 ft | 328 kts | 5° |
| 2026-05-07 14:08 | 34.72640 | 33.79738 | 7771 ft | 326 kts | 5° |
| 2026-05-07 14:08 | 34.74886 | 33.80010 | 7283 ft | 323 kts | 5° |
| 2026-05-07 14:08 | 34.77116 | 33.80284 | 6794 ft | 321 kts | 5° |
| 2026-05-07 14:08 | 34.79327 | 33.80562 | 6306 ft | 318 kts | 5° |
| 2026-05-07 14:09 | 34.81521 | 33.80842 | 5798 ft | 316 kts | 5° |
| 2026-05-07 14:09 | 34.83670 | 33.81121 | 5303 ft | 314 kts | 5° |
| 2026-05-07 14:09 | 34.85833 | 33.81405 | 4806 ft | 312 kts | 5° |
| 2026-05-07 14:09 | 34.87973 | 33.81390 | 4521 ft | 302 kts | 349° |
| 2026-05-07 14:10 | 34.89883 | 33.80654 | 4386 ft | 277 kts | 339° |
| 2026-05-07 14:10 | 34.91638 | 33.79820 | 4233 ft | 266 kts | 339° |
| 2026-05-07 14:10 | 34.93393 | 33.78982 | 3553 ft | 277 kts | 339° |
| 2026-05-07 14:10 | 34.95181 | 33.78053 | 3128 ft | 279 kts | 329° |
| 2026-05-07 14:11 | 34.96463 | 33.76383 | 2992 ft | 270 kts | 295° |
| 2026-05-07 14:11 | 34.96710 | 33.74212 | 2891 ft | 253 kts | 258° |
| 2026-05-07 14:11 | 34.95894 | 33.72451 | 2807 ft | 235 kts | 221° |
| 2026-05-07 14:11 | 34.94647 | 33.71237 | 2705 ft | 224 kts | 222° |
| 2026-05-07 14:12 | 34.93541 | 33.69957 | 2575 ft | 216 kts | 225° |
| 2026-05-07 14:12 | 34.92483 | 33.68728 | 2213 ft | 206 kts | 225° |
| 2026-05-07 14:12 | 34.91532 | 33.67492 | 1583 ft | 198 kts | 229° |
| 2026-05-07 14:12 | 34.90585 | 33.66285 | 882 ft | 193 kts | 224° |
| 2026-05-07 14:13 | 34.89680 | 33.65217 | 486 ft | 170 kts | 224° |
| 2026-05-07 14:13 | 34.88915 | 33.64256 | 373 ft | 153 kts | 222° |
| 2026-05-07 14:13 | 34.88172 | 33.63368 | 42 ft | 144 kts | 223° |
| 2026-05-07 14:13 | 34.87533 | 33.62603 | 22 ft | 108 kts | 224° |
| 2026-05-07 14:14 | 34.87129 | 33.62099 | 23 ft | 60 kts | 225° |
| 2026-05-07 14:14 | 34.86953 | 33.61728 | 21 ft | 32 kts | 263° |
| 2026-05-07 14:14 | 34.86908 | 33.61518 | 21 ft | 25 kts | 257° |
| 2026-05-07 14:14 | 34.86895 | 33.61346 | 22 ft | 8 kts | 319° |
| 2026-05-07 14:15 | 34.86888 | 33.61297 | 20 ft | 5 kts | 208° |
| 2026-05-07 14:15 | 34.86853 | 33.61267 | 22 ft | 8 kts | 231° |
| 2026-05-07 14:15 | 34.86826 | 33.61220 | 20 ft | 3 kts | 257° |
| 2026-05-07 14:15 | 34.86838 | 33.61199 | 20 ft | 4 kts | 314° |
| 2026-05-07 14:16 | 34.86861 | 33.61173 | 20 ft | 3 kts | 315° |
| 2026-05-07 14:16 | 34.86873 | 33.61157 | 20 ft | 2 kts | 315° |
| 2026-05-07 14:16 | 34.86876 | 33.61154 | 20 ft | 0 kts | 315° |
| 2026-05-07 14:30 | 34.86876 | 33.61155 | 21 ft | 0 kts | 315° |
| 2026-05-07 14:40 | 34.86875 | 33.61155 | 21 ft | 0 kts | 315° |